Tiempo atmosférico en la estación meteorológica de Sopeira, Huesca (760 m.)



Fecha
DESCASC
Temp. máxima en grados centígrados (hora)
DESCASC
Temp. mínima en grados centígrados (hora)
DESCASC
Temp. media en grados centígrados
DESCASC
Racha de viento máxima en m/sg (hora)
DESCASC
Velocidad máxima media en intervalos de 10 minutos(hora)
DESCASC
Precipitaciones diarias en mm
DESCASC
Precipitaciones de 00:00 a 06:00 en mm
DESCASC
Precipitaciones de 06:00 a 12:00 en mm
DESCASC
Precipitaciones de 12:00 a 18:00 en mm
DESCASC
Precipitaciones de 18:00 a 24:00 en mm
DESCASC
28-05-2020 25 (15:50) 14.4 (07:00) 19.7 10.83 (20:10) 7.5 (23:10) 6 3.8 0 0 2.2
27-05-2020 24.8 (17:00) 16.1 (08:10) 20.4 9.72 (18:50) 6.11 (06:50) 2.4 0 0 0 2.4
26-05-2020 26.3 (16:50) 14.2 (07:30) 20.2 10 (03:20) 6.94 (01:40) 1.8 0 0 0 1.8
25-05-2020 24.6 (16:10) 16.1 (06:30) 20.4 9.17 (18:40) 6.67 (23:30) 0.8 0 0 0 0.8
24-05-2020 23 (14:50) 15.5 (00:00) 19.3 7.78 (16:10) 5 (15:10) 0 0 0 0 0
23-05-2020 27.4 (14:00) 14.5 (00:00) 20.9 13.61 (06:40) 10.28 (06:50) 0 0 0 0 0
22-05-2020 29.2 (16:00) 13.3 (00:00) 21.3 13.33 (06:40) 10.56 (07:00) 0 0 0 0 0
21-05-2020 27.8 (16:00) 11.9 (00:00) 19.8 13.33 (05:40) 10 (06:40) 0 0 0 0 0
20-05-2020 27.4 (15:50) 10 (00:00) 18.7 12.5 (07:00) 9.17 (04:20) 0 0 0 0 0
19-05-2020 25.7 (16:10) 10.9 (00:00) 18.3 11.11 (02:10) 7.22 (05:00) 0 0 0 0 0
18-05-2020 23.9 (15:10) 7.8 (00:00) 15.8 12.22 (04:00) 9.44 (04:10) 0 0 0 0 0
17-05-2020 23 (16:20) 7.2 (00:00) 15.1 10.56 (23:59) 5.83 (13:50) 0 0 0 0 0
16-05-2020 18.6 (13:40) 10.1 (00:00) 14.4 10 (00:30) 7.22 (02:40) 0.2 0 0 0 0.2
15-05-2020 17.6 (15:10) 10.2 (00:00) 13.9 8.61 (23:50) 5.83 (23:30) 8.4 0 0 4.4 4
14-05-2020 16.2 (14:00) 10 (00:00) 13.1 10.83 (04:40) 7.5 (04:00) 27.2 0 0.6 22.8 3.8
13-05-2020 17.4 (18:50) 10.2 (00:00) 13.8 10.56 (04:40) 7.5 (04:50) 15.4 11.2 4.2 0 0
12-05-2020 19.4 (18:10) 7.6 (00:00) 13.5 11.94 (04:50) 8.61 (06:20) 5.4 0 0 0 5.4
11-05-2020 18 (18:30) 10.1 (00:00) 14.1 11.94 (17:30) 6.39 (17:00) 0.4 0.2 0 0.2 0
10-05-2020 15.7 (00:00) 10.2 (00:00) 12.9 14.72 (10:50) 6.94 (10:50) 37.8 0 6.6 20.4 10.8
09-05-2020 24.7 (13:40) 10.9 (00:00) 17.8 12.5 (07:30) 9.44 (09:10) 0 0 0 0 0
08-05-2020 24.8 (15:50) 13.5 (00:00) 19.1 11.39 (07:50) 7.78 (08:20) 0 0 0 0 0
07-05-2020 25 (14:20) 11.3 (00:00) 18.2 12.78 (06:20) 9.17 (06:30) 0 0 0 0 0
06-05-2020 25.1 (15:40) 9 (00:00) 17.1 16.39 (06:00) 11.67 (07:30) 0 0 0 0 0
05-05-2020 24.8 (14:40) 12.8 (00:00) 18.8 10.83 (05:10) 7.78 (05:50) 0 0 0 0 0
04-05-2020 28.4 (17:10) 11.6 (00:00) 20 13.89 (06:20) 10 (08:30) 0 0 0 0 0
03-05-2020 25.1 (15:30) 9.3 (00:00) 17.2 12.78 (05:30) 9.17 (06:20) 0 0 0 0 0
02-05-2020 24.2 (15:40) 9.3 (00:00) 16.8 11.11 (19:00) 7.22 (04:30) 0 0 0 0 0

Gráficas

Temp. máximas Temp. mínimas Temp. medias Precipitaciones Rachas de viento máximas Velocidades máximas media en intervalos de 10 minutos

Datos horarios

Fecha y hora oficial Temperatura (ºC) Velocidad del viento (km/h) Dirección del viento Racha (km/h) Dirección de racha Precipitación (mm) Presión (hPa) Tendencia (hPa) Humedad (%)
2020-05-31 23:00:00 14.3 2 Nordeste 9 Sudoeste 4.2 -- -- 91
2020-05-31 22:00:00 14.5 4 Sudeste 16 Sur 3 -- -- 91
2020-05-31 21:00:00 14.7 0 Calma 25 Sudoeste 1.4 -- -- 89
2020-05-31 20:00:00 15.7 5 Sudoeste 39 Oeste 24.8 -- -- 84
2020-05-31 19:00:00 18 18 Sudeste 47 Este 1.8 -- -- 78
2020-05-31 18:00:00 23.8 3 Sudeste 24 Sur 0 -- -- 53
2020-05-31 17:00:00 26.1 10 Sur 26 Sur 0 -- -- 44
2020-05-31 16:00:00 25.6 14 Sur 25 Sur 0 -- -- 49
2020-05-31 15:00:00 25 16 Sur 27 Sur 0 -- -- 49
2020-05-31 14:00:00 24.8 8 Sudeste 23 Sur 0 -- -- 52
2020-05-31 13:00:00 24.1 10 Sur 19 Sur 0 -- -- 55
2020-05-31 12:00:00 23.2 9 Sur 16 Sudoeste 0 -- -- 55
2020-05-31 11:00:00 21.9 8 Sur 14 Sur 0 -- -- 65
2020-05-31 10:00:00 20.7 4 Sudeste 15 Noroeste 0 -- -- 68
2020-05-31 09:00:00 17.7 7 Norte 17 Noroeste 0 -- -- 78
2020-05-31 08:00:00 15.6 6 Norte 22 Noroeste 0 -- -- 82
2020-05-31 07:00:00 14.9 10 Norte 22 Noroeste 0 -- -- 87
2020-05-31 06:00:00 14.8 2 Este 15 Sudoeste 0 -- -- 84
2020-05-31 05:00:00 15.9 2 Oeste 11 Sudoeste 0 -- -- 79
2020-05-31 04:00:00 16.2 5 Sudoeste 11 Sur 0 -- -- 78
2020-05-31 03:00:00 16.8 5 Sudoeste 13 Sudoeste 0 -- -- 77
2020-05-31 02:00:00 17.2 4 Sur 15 Sudoeste 0 -- -- 76
2020-05-31 01:00:00 17.6 7 Sur 14 Sur 0 -- -- 76
2020-05-31 00:00:00 18.4 6 Sudeste 14 Sudoeste 0 -- -- 73
2020-05-30 23:00:00 19.3 9 Sur 20 Sur 0 -- -- 69
2020-05-30 22:00:00 20.5 11 Sur 24 Sur 0 -- -- 64
2020-05-30 21:00:00 21.7 5 Sudeste 24 Sur 0 -- -- 59
2020-05-30 20:00:00 22.6 11 Sur 21 Sur 0 -- -- 49
2020-05-30 19:00:00 23.5 12 Sur 24 Sur 0 -- -- 45
2020-05-30 18:00:00 24.8 14 Sur 21 Sudoeste 0 -- -- 42
2020-05-30 17:00:00 24.7 15 Sur 27 Sur 0 -- -- 43
2020-05-30 16:00:00 24.8 13 Sur 26 Sur 0 -- -- 41
2020-05-30 15:00:00 24.3 15 Sur 27 Sur 0 -- -- 46
2020-05-30 14:00:00 23.5 17 Sur 29 Sur 0 -- -- 48
2020-05-30 13:00:00 23.3 12 Sudeste 22 Sur 0 -- -- 55
2020-05-30 12:00:00 22.2 8 Sur 16 Sur 0 -- -- 56
2020-05-30 11:00:00 21.1 7 Sur 13 Sur 0 -- -- 56
2020-05-30 10:00:00 17.6 5 Norte 22 Noroeste 0 -- -- 76
2020-05-30 09:00:00 14.9 17 Noroeste 36 Noroeste 0 -- -- 80
2020-05-30 08:00:00 13.5 20 Noroeste 35 Noroeste 0 -- -- 85
2020-05-30 07:00:00 13.1 24 Noroeste 35 Noroeste 0 -- -- 87
2020-05-30 06:00:00 13.3 21 Noroeste 31 Noroeste 0 -- -- 86
2020-05-30 05:00:00 13.3 22 Noroeste 33 Noroeste 0 -- -- 86
2020-05-30 04:00:00 13.5 23 Noroeste 34 Noroeste 0 -- -- 86
2020-05-30 03:00:00 14.2 24 Noroeste 36 Noroeste 0 -- -- 82
2020-05-30 02:00:00 14.5 25 Noroeste 36 Norte 0 -- -- 81
2020-05-30 01:00:00 15 18 Noroeste 26 Noroeste 0 -- -- 79
2020-05-30 00:00:00 15.6 11 Noroeste 18 Noroeste 0 -- -- 79
2020-05-29 23:00:00 16 6 Este 16 Sudoeste 0 -- -- 73
2020-05-29 22:00:00 17.8 17 Sudoeste 41 Sudoeste 0 -- -- 65
2020-05-29 21:00:00 18.8 9 Sudeste 21 Sudeste 0 -- -- 64
2020-05-29 20:00:00 19.7 7 Noroeste 22 Noroeste 0.2 -- -- 77
2020-05-29 19:00:00 19.8 17 Noroeste 26 Noroeste 0.2 -- -- 78
2020-05-29 18:00:00 20 18 Noroeste 27 Noroeste 1.4 -- -- 74
2020-05-29 17:00:00 23.6 16 Sur 30 Sur 0.2 -- -- 53
2020-05-29 16:00:00 25.5 13 Sur 22 Sur 0 -- -- 42
2020-05-29 15:00:00 26.1 9 Sur 21 Sur 0 -- -- 46
2020-05-29 14:00:00 25.6 6 Sur 17 Sur 0 -- -- 44
2020-05-29 13:00:00 24.3 8 Sudeste 16 Sudoeste 0 -- -- 54
2020-05-29 12:00:00 22.7 9 Sur 13 Sur 0 -- -- 55
2020-05-29 11:00:00 19.3 4 Norte 25 Noroeste 0 -- -- 68
2020-05-29 10:00:00 15.1 18 Noroeste 34 Noroeste 0 -- -- 81
2020-05-29 09:00:00 13.2 24 Noroeste 40 Noroeste 0 -- -- 87
2020-05-29 08:00:00 12.4 23 Noroeste 37 Noroeste 0 -- -- 89
2020-05-29 07:00:00 12.5 28 Noroeste 39 Noroeste 0 -- -- 90
2020-05-29 06:00:00 12.8 26 Noroeste 37 Noroeste 0 -- -- 90
2020-05-29 05:00:00 13.2 21 Noroeste 36 Noroeste 0 -- -- 90
2020-05-29 04:00:00 13.5 22 Noroeste 35 Noroeste 0 -- -- 90
2020-05-29 03:00:00 13.8 24 Noroeste 33 Noroeste 0 -- -- 89
2020-05-29 02:00:00 14.5 23 Noroeste 31 Noroeste 0 -- -- 86
2020-05-29 01:00:00 15 21 Noroeste 32 Noroeste 0 -- -- 86
2020-05-29 00:00:00 15.8 20 Noroeste 32 Noroeste 0 -- -- 84
2020-05-28 23:00:00 16.5 22 Noroeste 32 Noroeste 0 -- -- 80
2020-05-28 22:00:00 17.2 16 Noroeste 29 Noroeste 0 -- -- 76
2020-05-28 21:00:00 17.6 22 Noroeste 39 Este 1.2 -- -- 73
2020-05-28 20:00:00 21.2 18 Norte 30 Nordeste 1 -- -- 65
2020-05-28 19:00:00 23.7 7 Sur 18 Sudoeste 0 -- -- 47
2020-05-28 18:00:00 24.8 6 Sur 20 Sur 0 -- -- 47
2020-05-28 17:00:00 23.8 14 Sur 22 Sur 0 -- -- 51
2020-05-28 16:00:00 24.5 11 Sur 23 Sur 0 -- -- 48
2020-05-28 15:00:00 23.7 11 Sur 25 Sur 0 -- -- 52
2020-05-28 14:00:00 24.2 9 Sur 21 Sur 0 -- -- 56
2020-05-28 13:00:00 22.7 12 Sur 20 Sudeste 0 -- -- 63
2020-05-28 12:00:00 22.1 5 Sudeste 11 Este 0 -- -- 68
2020-05-28 11:00:00 20.4 6 Sur 10 Sudeste 0 -- -- 68
2020-05-28 10:00:00 18.2 5 Noroeste 12 Noroeste 0 -- -- 80
2020-05-28 09:00:00 17 3 Este 14 Noroeste 0 -- -- 93
2020-05-28 08:00:00 15 10 Noroeste 20 Noroeste 0 -- -- 91
2020-05-28 07:00:00 14.4 0 Calma 18 Noroeste 0 -- -- 93
2020-05-28 06:00:00 15 13 Noroeste 20 Noroeste 0 -- -- 93
2020-05-28 05:00:00 14.9 0 Calma 12 Noroeste 0 -- -- 93
2020-05-28 04:00:00 15.4 0 Calma 5 Noroeste 0 -- -- 92
2020-05-28 03:00:00 15.6 0 Calma 9 Noroeste 1.2 -- -- 92
2020-05-28 02:00:00 16.2 0 Calma 5 Oeste 2.6 -- -- 91
2020-05-28 01:00:00 16.6 3 Oeste 17 Noroeste 0 -- -- 89
2020-05-28 00:00:00 16.6 12 Noroeste 18 Noroeste 0 -- -- 88
2020-05-27 23:00:00 16.4 14 Norte 22 Noroeste 0.4 -- -- 88
2020-05-27 22:00:00 16.8 14 Noroeste 22 Noroeste 2 -- -- 87
2020-05-27 21:00:00 18.5 11 Norte 19 Noroeste 0 -- -- 73
2020-05-27 20:00:00 20.6 5 Sur 29 Nordeste 0 -- -- 59
2020-05-27 19:00:00 21.9 17 Este 35 Sur 0 -- -- 56
2020-05-27 18:00:00 23.3 5 Sudeste 15 Sudoeste 0 -- -- 49
2020-05-27 17:00:00 24.8 6 Este 21 Sudoeste 0 -- -- 50
2020-05-27 16:00:00 22.7 6 Sur 14 Sudoeste 0 -- -- 55
2020-05-27 15:00:00 22.7 8 Sur 22 Sur 0 -- -- 54
2020-05-27 14:00:00 23.9 12 Sur 25 Sur 0 -- -- 51
2020-05-27 13:00:00 23.2 12 Sur 26 Sur 0 -- -- 55
2020-05-27 12:00:00 22.5 11 Sur 22 Sur 0 -- -- 56
2020-05-27 11:00:00 21.2 10 Sur 15 Sur 0 -- -- 62
2020-05-27 10:00:00 18.7 8 Noroeste 24 Noroeste 0 -- -- 61
2020-05-27 09:00:00 17.1 16 Noroeste 31 Noroeste 0 -- -- 64
2020-05-27 08:00:00 16.2 22 Noroeste 30 Noroeste 0 -- -- 68
2020-05-27 07:00:00 16.4 22 Noroeste 31 Noroeste 0 -- -- 67
2020-05-27 06:00:00 16.4 21 Noroeste 29 Noroeste 0 -- -- 70
2020-05-27 05:00:00 17 19 Noroeste 30 Noroeste 0 -- -- 68
2020-05-27 04:00:00 17.1 22 Noroeste 30 Noroeste 0 -- -- 70
2020-05-27 03:00:00 17.9 18 Noroeste 27 Noroeste 0 -- -- 73
2020-05-27 02:00:00 18.4 17 Noroeste 25 Noroeste 0 -- -- 73
2020-05-27 01:00:00 19 15 Noroeste 24 Noroeste 0 -- -- 75
2020-05-27 00:00:00 19.8 12 Noroeste 18 Noroeste 0 -- -- 76
2020-05-26 23:00:00 20.4 0 Calma 6 Sur 0 -- -- 76
2020-05-26 22:00:00 20.4 3 Sudeste 15 Sudeste 1.8 -- -- 73
2020-05-26 21:00:00 22.5 10 Sudeste 15 Sudeste 0 -- -- 59
2020-05-26 20:00:00 23.3 6 Sudeste 26 Sur 0 -- -- 56
2020-05-26 19:00:00 24.4 8 Sur 25 Sur 0 -- -- 54
2020-05-26 18:00:00 25.9 9 Sur 23 Sudoeste 0 -- -- 53
2020-05-26 17:00:00 26.2 12 Sur 23 Sur 0 -- -- 52
2020-05-26 16:00:00 25.7 10 Sur 22 Sudoeste 0 -- -- 55
2020-05-26 15:00:00 25.7 12 Sur 22 Sur 0 -- -- 54
2020-05-26 14:00:00 24.2 10 Sur 22 Sudoeste 0 -- -- 59
2020-05-26 13:00:00 23 12 Sur 22 Sur 0 -- -- 61
2020-05-26 12:00:00 23.2 8 Nordeste 15 Sur 0 -- -- 69
2020-05-26 11:00:00 19.1 9 Sur 13 Sur 0 -- -- 74
2020-05-26 10:00:00 16.4 10 Noroeste 24 Noroeste 0 -- -- 77
2020-05-26 09:00:00 15 16 Noroeste 28 Noroeste 0 -- -- 82
2020-05-26 08:00:00 14.4 19 Noroeste 33 Noroeste 0 -- -- 83
2020-05-26 07:00:00 14.5 24 Noroeste 32 Noroeste 0 -- -- 82
2020-05-26 06:00:00 14.7 23 Noroeste 32 Noroeste 0 -- -- 83
2020-05-26 05:00:00 15.4 21 Noroeste 33 Noroeste 0 -- -- 79
2020-05-26 04:00:00 15.5 20 Noroeste 36 Noroeste 0 -- -- 82
2020-05-26 03:00:00 15.4 22 Noroeste 34 Norte 0 -- -- 85
2020-05-26 02:00:00 15.3 24 Noroeste 33 Noroeste 0 -- -- 87
2020-05-26 01:00:00 15.5 18 Noroeste 27 Noroeste 0 -- -- 88
2020-05-26 00:00:00 16.2 16 Noroeste 31 Noroeste 0 -- -- 85
2020-05-25 23:00:00 16.8 19 Noroeste 30 Noroeste 0 -- -- 84
2020-05-25 22:00:00 17.2 15 Noroeste 22 Noroeste 0 -- -- 86
2020-05-25 21:00:00 17.2 5 Sudoeste 14 Oeste 0 -- -- 82
2020-05-25 20:00:00 18.6 0 Calma 22 Sudoeste 0.8 -- -- 84
2020-05-25 19:00:00 21 12 Este 33 Sur 0 -- -- 70
2020-05-25 18:00:00 23.3 10 Sur 26 Sudoeste 0 -- -- 59
2020-05-25 17:00:00 23.8 10 Sur 27 Sur 0 -- -- 59
2020-05-25 16:00:00 24.5 8 Sur 22 Sur 0 -- -- 57
2020-05-25 15:00:00 23.3 5 Nordeste 12 Nordeste 0 -- -- 64
2020-05-25 14:00:00 20.1 6 Este 14 Sudoeste 0 -- -- 74
2020-05-25 13:00:00 18.8 7 Sur 20 Sur 0 -- -- 72
2020-05-25 12:00:00 18.3 11 Sur 19 Sur 0 -- -- 74
2020-05-25 11:00:00 19.8 3 Este 13 Sur 0 -- -- 73
2020-05-25 10:00:00 18.2 6 Sur 14 Sudoeste 0 -- -- 79
2020-05-25 09:00:00 17.8 9 Norte 17 Noroeste 0 -- -- 79
2020-05-25 08:00:00 16.1 0 Calma 8 Sur 0 -- -- 86
2020-05-25 07:00:00 16.2 0 Calma 5 Sur 0 -- -- 85
2020-05-25 06:00:00 16.2 0 Calma 6 Sudoeste 0 -- -- 84
2020-05-25 05:00:00 16.8 0 Calma 5 Sur 0 -- -- 81
2020-05-25 04:00:00 17.4 5 Sudoeste 7 Sudoeste 0 -- -- 79
2020-05-25 03:00:00 17.9 0 Calma 5 Oeste 0 -- -- 77
2020-05-25 02:00:00 18.2 2 Sudoeste 12 Sur 0 -- -- 74
2020-05-25 01:00:00 18.4 5 Sur 10 Sur 0 -- -- 75
2020-05-25 00:00:00 18.9 3 Sudeste 9 Sudoeste 0 -- -- 72
2020-05-24 23:00:00 19.2 3 Sudeste 15 Sudoeste 0 -- -- 70
2020-05-24 22:00:00 20 8 Sur 15 Sur 0 -- -- 66
2020-05-24 21:00:00 20.8 10 Sur 14 Sur 0 -- -- 66
2020-05-24 20:00:00 21.4 3 Norte 16 Sur 0 -- -- 63
2020-05-24 19:00:00 21.5 8 Sur 22 Sudoeste 0 -- -- 64
2020-05-24 18:00:00 22.1 13 Sur 23 Sur 0 -- -- 59
2020-05-24 17:00:00 22.3 13 Sur 28 Sur 0 -- -- 60
2020-05-24 16:00:00 22.8 14 Sur 26 Sur 0 -- -- 61
2020-05-24 15:00:00 22.9 16 Sur 26 Sudoeste 0 -- -- 59
2020-05-24 14:00:00 22.1 14 Sudoeste 21 Sur 0 -- -- 59
2020-05-24 13:00:00 20.6 10 Sur 18 Sudoeste 0 -- -- 64
2020-05-24 12:00:00 19 11 Sur 18 Sur 0 -- -- 64
2020-05-24 11:00:00 18.7 5 Sur 13 Sudoeste 0 -- -- 72
2020-05-24 10:00:00 18.2 7 Sur 12 Sur 0 -- -- 77
2020-05-24 09:00:00 16.1 10 Sur 15 Sudoeste 0 -- -- 79
2020-05-24 08:00:00 15.8 5 Sur 14 Sudoeste 0 -- -- 79
2020-05-24 07:00:00 15.6 0 Calma 8 Sudoeste 0 -- -- 78
2020-05-24 06:00:00 15.7 3 Sudoeste 7 Sudoeste 0 -- -- 77
2020-05-24 05:00:00 16.6 4 Sudoeste 11 Sur 0 -- -- 72
2020-05-24 04:00:00 17.4 6 Sur 12 Sudoeste 0 -- -- 69
2020-05-24 03:00:00 18 4 Sudeste 19 Sudoeste 0 -- -- 69
2020-05-24 02:00:00 18.9 8 Sudoeste 15 Oeste 0 -- -- 69
2020-05-24 01:00:00 19.6 6 Sur 10 Sudoeste 0 -- -- 71
2020-05-24 00:00:00 20.1 6 Sudoeste 12 Oeste 0 -- -- 70
2020-05-23 23:00:00 21.5 3 Sudeste 9 Sur 0 -- -- 63
2020-05-23 22:00:00 22.8 5 Sudoeste 18 Sudoeste 0 -- -- 56
2020-05-23 21:00:00 23.6 7 Sur 19 Sur 0 -- -- 53
2020-05-23 20:00:00 24.3 12 Sur 26 Sur 0 -- -- 51
2020-05-23 19:00:00 25.6 17 Sur 31 Sur 0 -- -- 46
2020-05-23 18:00:00 26.6 18 Sur 28 Sur 0 -- -- 47
2020-05-23 17:00:00 27.2 15 Sur 28 Sur 0 -- -- 46
2020-05-23 16:00:00 26.7 16 Sur 29 Sur 0 -- -- 46
2020-05-23 15:00:00 26.8 18 Sur 26 Sur 0 -- -- 43
2020-05-23 14:00:00 27.4 12 Sur 22 Sur 0 -- -- 39
2020-05-23 13:00:00 26.7 10 Sur 17 Sur 0 -- -- 43
2020-05-23 12:00:00 25 8 Sur 14 Sudoeste 0 -- -- 46
2020-05-23 11:00:00 23.7 5 Sudeste 20 Noroeste 0 -- -- 59
2020-05-23 10:00:00 19.2 9 Norte 33 Noroeste 0 -- -- 63
2020-05-23 09:00:00 17 26 Noroeste 43 Noroeste 0 -- -- 68
2020-05-23 08:00:00 15 27 Noroeste 46 Noroeste 0 -- -- 75
2020-05-23 07:00:00 14.5 36 Noroeste 49 Noroeste 0 -- -- 76
2020-05-23 06:00:00 15 34 Noroeste 48 Noroeste 0 -- -- 74
2020-05-23 05:00:00 15.7 34 Noroeste 47 Noroeste 0 -- -- 71
2020-05-23 04:00:00 15.6 36 Noroeste 44 Noroeste 0 -- -- 72
2020-05-23 03:00:00 16.3 30 Noroeste 42 Noroeste 0 -- -- 69
2020-05-23 02:00:00 17.2 27 Noroeste 40 Noroeste 0 -- -- 66
2020-05-23 01:00:00 18.2 23 Noroeste 33 Noroeste 0 -- -- 62
2020-05-23 00:00:00 19.4 15 Noroeste 28 Noroeste 0 -- -- 58
2020-05-22 23:00:00 21.1 21 Noroeste 26 Noroeste 0 -- -- 54
2020-05-22 22:00:00 22.9 11 Noroeste 15 Noroeste 0 -- -- 49
2020-05-22 21:00:00 24.6 5 Sudeste 9 Oeste 0 -- -- 45
2020-05-22 20:00:00 26 6 Nordeste 15 Sur 0 -- -- 38
2020-05-22 19:00:00 27.9 9 Sur 19 Sur 0 -- -- 36
2020-05-22 18:00:00 28.8 9 Sudoeste 24 Sur 0 -- -- 37
2020-05-22 17:00:00 28.8 13 Sur 25 Sur 0 -- -- 39
2020-05-22 16:00:00 29.2 15 Sur 23 Sur 0 -- -- 35
2020-05-22 15:00:00 28.9 9 Sur 22 Sudoeste 0 -- -- 31
2020-05-22 14:00:00 28.3 10 Sur 18 Sur 0 -- -- 39
2020-05-22 13:00:00 27.3 8 Sur 15 Sur 0 -- -- 44
2020-05-22 12:00:00 25.7 8 Sur 13 Sur 0 -- -- 49
2020-05-22 11:00:00 22.2 5 Norte 24 Noroeste 0 -- -- 62
2020-05-22 10:00:00 18.8 10 Norte 37 Noroeste 0 -- -- 67
2020-05-22 09:00:00 16 30 Noroeste 42 Noroeste 0 -- -- 73
2020-05-22 08:00:00 13.8 34 Noroeste 47 Noroeste 0 -- -- 82
2020-05-22 07:00:00 13.3 38 Noroeste 48 Noroeste 0 -- -- 84
2020-05-22 06:00:00 13.9 35 Noroeste 47 Noroeste 0 -- -- 83
2020-05-22 05:00:00 14.1 32 Noroeste 42 Noroeste 0 -- -- 83
2020-05-22 04:00:00 15 29 Noroeste 44 Noroeste 0 -- -- 81
2020-05-22 03:00:00 15.6 27 Noroeste 41 Noroeste 0 -- -- 80
2020-05-22 02:00:00 16.4 28 Noroeste 38 Noroeste 0 -- -- 77
2020-05-22 01:00:00 17.3 28 Noroeste 36 Noroeste 0 -- -- 75
2020-05-22 00:00:00 18.6 23 Noroeste 32 Noroeste 0 -- -- 71
2020-05-21 23:00:00 20 20 Noroeste 29 Noroeste 0 -- -- 68
2020-05-21 22:00:00 21.7 10 Noroeste 15 Noroeste 0 -- -- 61
2020-05-21 21:00:00 23.5 5 Sudeste 13 Sur 0 -- -- 50
2020-05-21 20:00:00 24.9 8 Sur 18 Sudoeste 0 -- -- 45
2020-05-21 19:00:00 26.3 9 Sur 21 Sur 0 -- -- 46
2020-05-21 18:00:00 25.6 11 Sur 26 Sur 0 -- -- 43
2020-05-21 17:00:00 26.8 15 Sur 28 Sur 0 -- -- 45
2020-05-21 16:00:00 27.8 12 Sur 21 Sur 0 -- -- 41
2020-05-21 15:00:00 27.5 9 Sur 18 Sur 0 -- -- 39
2020-05-21 14:00:00 26.7 9 Sur 15 Sur 0 -- -- 37
2020-05-21 13:00:00 25.3 9 Sudoeste 14 Sur 0 -- -- 42
2020-05-21 12:00:00 24 8 Sur 10 Noroeste 0 -- -- 43
2020-05-21 11:00:00 19.9 8 Noroeste 31 Noroeste 0 -- -- 50
2020-05-21 10:00:00 16.7 19 Noroeste 36 Noroeste 0 -- -- 59
2020-05-21 09:00:00 14.2 24 Noroeste 45 Noroeste 0 -- -- 68
2020-05-21 08:00:00 12.1 36 Noroeste 46 Noroeste 0 -- -- 77
2020-05-21 07:00:00 12 36 Noroeste 48 Noroeste 0 -- -- 79
2020-05-21 06:00:00 12.4 33 Noroeste 48 Noroeste 0 -- -- 78
2020-05-21 05:00:00 13.4 33 Noroeste 44 Noroeste 0 -- -- 74
2020-05-21 04:00:00 14.1 36 Noroeste 45 Noroeste 0 -- -- 72
2020-05-21 03:00:00 14.6 32 Noroeste 40 Noroeste 0 -- -- 72
2020-05-21 02:00:00 15.8 30 Noroeste 36 Noroeste 0 -- -- 68
2020-05-21 01:00:00 16.8 26 Noroeste 35 Noroeste 0 -- -- 65
2020-05-21 00:00:00 17.9 21 Noroeste 32 Noroeste 0 -- -- 62
2020-05-20 23:00:00 19.4 16 Noroeste 23 Noroeste 0 -- -- 56
2020-05-20 22:00:00 21.4 4 Noroeste 10 Noroeste 0 -- -- 50
2020-05-20 21:00:00 22.9 2 Sudoeste 9 Sur 0 -- -- 45
2020-05-20 20:00:00 24 6 Sudeste 19 Sur 0 -- -- 41
2020-05-20 19:00:00 25.6 9 Sur 21 Sudoeste 0 -- -- 37
2020-05-20 18:00:00 26.8 7 Sudoeste 27 Sur 0 -- -- 36
2020-05-20 17:00:00 27 13 Sur 24 Sur 0 -- -- 34
2020-05-20 16:00:00 27.4 10 Sur 22 Sudoeste 0 -- -- 28
2020-05-20 15:00:00 27 8 Sur 17 Sudoeste 0 -- -- 31
2020-05-20 14:00:00 25.9 10 Sur 17 Sudoeste 0 -- -- 33
2020-05-20 13:00:00 24.6 12 Sudoeste 15 Sur 0 -- -- 24
2020-05-20 12:00:00 23.5 8 Sur 13 Sur 0 -- -- 43
2020-05-20 11:00:00 19 4 Norte 25 Noroeste 0 -- -- 49
2020-05-20 10:00:00 14.7 17 Noroeste 35 Noroeste 0 -- -- 52
2020-05-20 09:00:00 11.7 26 Noroeste 40 Noroeste 0 -- -- 61
2020-05-20 08:00:00 10.3 27 Noroeste 44 Noroeste 0 -- -- 65
2020-05-20 07:00:00 10.2 30 Noroeste 45 Noroeste 0 -- -- 67
2020-05-20 06:00:00 11.5 25 Noroeste 43 Noroeste 0 -- -- 61
2020-05-20 05:00:00 12.5 33 Noroeste 43 Noroeste 0 -- -- 60
2020-05-20 04:00:00 13.9 29 Noroeste 38 Noroeste 0 -- -- 55
2020-05-20 03:00:00 15.2 25 Noroeste 34 Noroeste 0 -- -- 51
2020-05-20 02:00:00 17 22 Noroeste 37 Noroeste 0 -- -- 45
2020-05-20 01:00:00 18.5 12 Noroeste 31 Noroeste 0 -- -- 39
2020-05-20 00:00:00 19.9 15 Norte 36 Noroeste 0 -- -- 35
2020-05-19 23:00:00 20.6 15 Noroeste 28 Noroeste 0 -- -- 35
2020-05-19 22:00:00 21.6 6 Noroeste 27 Noroeste 0 -- -- 34
2020-05-19 21:00:00 22.7 9 Oeste 27 Norte 0 -- -- 32
2020-05-19 20:00:00 23.4 12 Noroeste 30 Noroeste 0 -- -- 30
2020-05-19 19:00:00 24.3 13 Noroeste 40 Noroeste 0 -- -- 30
2020-05-19 18:00:00 25 11 Oeste 33 Noroeste 0 -- -- 29
2020-05-19 17:00:00 25.5 12 Oeste 39 Noroeste 0 -- -- 29
2020-05-19 16:00:00 25.6 11 Oeste 40 Noroeste 0 -- -- 30
2020-05-19 15:00:00 25.2 10 Oeste 36 Noroeste 0 -- -- 30
2020-05-19 14:00:00 25.1 12 Sur 20 Sur 0 -- -- 36
2020-05-19 13:00:00 24.5 6 Este 13 Sur 0 -- -- 37
2020-05-19 12:00:00 22.8 7 Sur 13 Sudeste 0 -- -- 37
2020-05-19 11:00:00 20.9 7 Sur 12 Sur 0 -- -- 40
2020-05-19 10:00:00 17.4 3 Sur 20 Noroeste 0 -- -- 49
2020-05-19 09:00:00 13.2 17 Noroeste 25 Noroeste 0 -- -- 52
2020-05-19 08:00:00 10.9 12 Norte 33 Noroeste 0 -- -- 59
2020-05-19 07:00:00 11.6 21 Noroeste 35 Noroeste 0 -- -- 54
2020-05-19 06:00:00 11.9 19 Noroeste 32 Noroeste 0 -- -- 54
2020-05-19 05:00:00 13.3 26 Noroeste 36 Noroeste 0 -- -- 49
2020-05-19 04:00:00 14 19 Noroeste 32 Noroeste 0 -- -- 47
2020-05-19 03:00:00 15.4 14 Noroeste 40 Noroeste 0 -- -- 44
2020-05-19 02:00:00 15.8 20 Noroeste 34 Noroeste 0 -- -- 44
2020-05-19 01:00:00 15.6 22 Noroeste 39 Noroeste 0 -- -- 45
2020-05-19 00:00:00 17 18 Noroeste 29 Noroeste 0 -- -- 41
2020-05-18 23:00:00 18.5 14 Norte 26 Noroeste 0 -- -- 38
2020-05-18 22:00:00 19.6 13 Noroeste 23 Noroeste 0 -- -- 36
2020-05-18 21:00:00 20.5 8 Noroeste 14 Noroeste 0 -- -- 36
2020-05-18 20:00:00 20.9 6 Sudoeste 18 Sur 0 -- -- 50
2020-05-18 19:00:00 22.8 10 Sudoeste 21 Sudoeste 0 -- -- 44
2020-05-18 18:00:00 23.5 12 Sur 20 Sur 0 -- -- 43
2020-05-18 17:00:00 23.9 8 Oeste 22 Sur 0 -- -- 38
2020-05-18 16:00:00 23.7 10 Sur 22 Sudoeste 0 -- -- 41
2020-05-18 15:00:00 23.6 13 Sur 22 Sudoeste 0 -- -- 40
2020-05-18 14:00:00 22.7 10 Sur 20 Sur 0 -- -- 44
2020-05-18 13:00:00 22 9 Sur 14 Sur 0 -- -- 42
2020-05-18 12:00:00 20.5 8 Sur 12 Sur 0 -- -- 41
2020-05-18 11:00:00 18.5 7 Sur 13 Noroeste 0 -- -- 46
2020-05-18 10:00:00 13.8 11 Noroeste 30 Noroeste 0 -- -- 52
2020-05-18 09:00:00 10.4 20 Noroeste 39 Noroeste 0 -- -- 66
2020-05-18 08:00:00 8.2 26 Noroeste 42 Noroeste 0 -- -- 75
2020-05-18 07:00:00 7.9 24 Noroeste 36 Noroeste 0 -- -- 77
2020-05-18 06:00:00 8.6 24 Noroeste 40 Noroeste 0 -- -- 73
2020-05-18 05:00:00 9.6 26 Noroeste 42 Noroeste 0 -- -- 67
2020-05-18 04:00:00 10.7 32 Noroeste 44 Noroeste 0 -- -- 62
2020-05-18 03:00:00 12 26 Noroeste 39 Noroeste 0 -- -- 57
2020-05-18 02:00:00 13.9 17 Noroeste 31 Noroeste 0 -- -- 49
2020-05-18 01:00:00 14.7 17 Norte 35 Noroeste 0 -- -- 46
2020-05-18 00:00:00 15.7 11 Nordeste 38 Noroeste 0 -- -- 44
2020-05-17 23:00:00 16.4 16 Norte 25 Noroeste 0 -- -- 43
2020-05-17 22:00:00 17.4 9 Norte 32 Noroeste 0 -- -- 39
2020-05-17 21:00:00 18.8 6 Nordeste 33 Noroeste 0 -- -- 36
2020-05-17 20:00:00 20.1 13 Noroeste 28 Oeste 0 -- -- 33
2020-05-17 19:00:00 21.5 12 Sudoeste 27 Oeste 0 -- -- 30
2020-05-17 18:00:00 22.2 9 Oeste 20 Sudoeste 0 -- -- 37
2020-05-17 17:00:00 21.8 10 Sudoeste 23 Sudoeste 0 -- -- 46
2020-05-17 16:00:00 22.2 8 Noroeste 27 Nordeste 0 -- -- 26
2020-05-17 15:00:00 21.3 4 Nordeste 21 Noroeste 0 -- -- 33
2020-05-17 14:00:00 20 15 Noroeste 33 Noroeste 0 -- -- 29
2020-05-17 13:00:00 20.1 6 Sur 12 Sudoeste 0 -- -- 37
2020-05-17 12:00:00 18.2 8 Sur 14 Sudoeste 0 -- -- 49
2020-05-17 11:00:00 17.5 6 Sudeste 12 Sur 0 -- -- 61
2020-05-17 10:00:00 14 5 Sur 8 Sudeste 0 -- -- 78
2020-05-17 09:00:00 10.1 2 Nordeste 18 Noroeste 0 -- -- 92
2020-05-17 08:00:00 8.1 4 Norte 18 Noroeste 0 -- -- 94
2020-05-17 07:00:00 7.3 2 Oeste 7 Noroeste 0 -- -- 94
2020-05-17 06:00:00 8.1 0 Calma 8 Sudeste 0 -- -- 94
2020-05-17 05:00:00 8.3 6 Sur 12 Sur 0 -- -- 93
2020-05-17 04:00:00 9.2 0 Calma 5 Sudoeste 0 -- -- 92
2020-05-17 03:00:00 9.6 0 Calma 6 Sudoeste 0 -- -- 91
2020-05-17 02:00:00 10.1 5 Sur 9 Sur 0 -- -- 89
2020-05-17 01:00:00 10.3 0 Calma 5 Sur 0 -- -- 89
2020-05-17 00:00:00 11.4 4 Sur 12 Sur 0 -- -- 81
2020-05-16 23:00:00 11.6 3 Sur 8 Sudeste 0 -- -- 81
2020-05-16 22:00:00 11.5 4 Este 9 Este 0 -- -- 87
2020-05-16 21:00:00 12.4 3 Este 8 Sudeste 0 -- -- 86
2020-05-16 20:00:00 13 2 Sudeste 15 Sudoeste 0 -- -- 84
2020-05-16 19:00:00 13.7 12 Sudoeste 19 Oeste 0.2 -- -- 81
2020-05-16 18:00:00 15.4 9 Sur 15 Sur 0 -- -- 69
2020-05-16 17:00:00 14.4 10 Sur 18 Sur 0 -- -- 79
2020-05-16 16:00:00 14.4 6 Sudoeste 15 Sudoeste 0 -- -- 74
2020-05-16 15:00:00 14.7 8 Sur 23 Sudoeste 0 -- -- 72
2020-05-16 14:00:00 17.9 11 Sur 18 Sur 0 -- -- 62
2020-05-16 13:00:00 17 6 Sur 13 Sudeste 0 -- -- 67
2020-05-16 12:00:00 15.9 4 Sur 9 Sur 0 -- -- 65
2020-05-16 11:00:00 14.8 3 Nordeste 8 Nordeste 0 -- -- 75
2020-05-16 10:00:00 12.4 6 Noroeste 10 Noroeste 0 -- -- 84
2020-05-16 09:00:00 11 4 Noroeste 12 Noroeste 0 -- -- 89
2020-05-16 08:00:00 10.4 8 Noroeste 14 Noroeste 0 -- -- 90
2020-05-16 07:00:00 10.2 8 Noroeste 13 Noroeste 0 -- -- 89
2020-05-16 06:00:00 10.2 5 Noroeste 24 Noroeste 0 -- -- 87
2020-05-16 05:00:00 10.2 17 Noroeste 31 Noroeste 0 -- -- 86
2020-05-16 04:00:00 10.3 18 Noroeste 28 Noroeste 0 -- -- 86
2020-05-16 03:00:00 10.3 22 Noroeste 36 Noroeste 0 -- -- 86
2020-05-16 02:00:00 10.8 17 Norte 31 Norte 0 -- -- 82
2020-05-16 01:00:00 11.6 20 Norte 36 Noroeste 0 -- -- 77
2020-05-16 00:00:00 11.6 20 Norte 31 Noroeste 0 -- -- 79
2020-05-15 23:00:00 12 18 Noroeste 29 Noroeste 0 -- -- 82
2020-05-15 22:00:00 12.4 18 Noroeste 30 Noroeste 3 -- -- 83
2020-05-15 21:00:00 13.7 10 Noroeste 21 Noroeste 0 -- -- 82
2020-05-15 20:00:00 13.6 11 Noroeste 17 Noroeste 0.2 -- -- 86
2020-05-15 19:00:00 13.9 3 Nordeste 9 Noroeste 0.8 -- -- 89
2020-05-15 18:00:00 13.8 0 Calma 6 Este 0.8 -- -- 87
2020-05-15 17:00:00 13.9 5 Este 12 Nordeste 2.2 -- -- 88
2020-05-15 16:00:00 14.6 3 Nordeste 28 Sur 0.8 -- -- 83
2020-05-15 15:00:00 17.4 6 Norte 15 Norte 0 -- -- 64
2020-05-15 14:00:00 16.4 3 Nordeste 22 Sur 0.4 -- -- 77
2020-05-15 13:00:00 15.9 16 Sur 24 Sur 0.2 -- -- 68
2020-05-15 12:00:00 16.5 6 Nordeste 15 Sur 0 -- -- 81
2020-05-15 11:00:00 14.2 9 Sur 16 Sur 0 -- -- 81
2020-05-15 10:00:00 13.5 3 Sudeste 7 Sudeste 0 -- -- 90
2020-05-15 09:00:00 11.3 0 Calma 8 Sur 0 -- -- 94
2020-05-15 08:00:00 10.5 0 Calma 9 Sudoeste 0 -- -- 95
2020-05-15 07:00:00 10.2 3 Sudoeste 9 Sudoeste 0 -- -- 95
2020-05-15 06:00:00 10.3 3 Sur 6 Sudoeste 0 -- -- 95
2020-05-15 05:00:00 10.3 3 Sur 5 Sudoeste 0 -- -- 95
2020-05-15 04:00:00 10.3 0 Calma 4 Sur 0 -- -- 95
2020-05-15 03:00:00 10.3 2 Este 8 Sudoeste 0 -- -- 95
2020-05-15 02:00:00 10.2 5 Sudoeste 13 Sur 0 -- -- 95
2020-05-15 01:00:00 10.2 0 Calma 3 Este 0 -- -- 94
2020-05-15 00:00:00 10.4 0 Calma 3 Sudoeste 0 -- -- 94
2020-05-14 23:00:00 10.5 0 Calma 3 Sudeste 0 -- -- 93
2020-05-14 22:00:00 10.7 0 Calma 6 Sur 0 -- -- 92
2020-05-14 21:00:00 11 0 Calma 3 Sudeste 0.8 -- -- 91
2020-05-14 20:00:00 11.3 0 Calma 5 Noroeste 0.8 -- -- 92
2020-05-14 19:00:00 11.3 3 Este 9 Sur 2.2 -- -- 92
2020-05-14 18:00:00 11.2 4 Sudeste 9 Sur 5.2 -- -- 92
2020-05-14 17:00:00 11.5 6 Sudeste 14 Sur 3.6 -- -- 90
2020-05-14 16:00:00 12.2 10 Sudoeste 21 Sur 12.8 -- -- 84
2020-05-14 15:00:00 15.1 9 Sur 18 Sur 1.2 -- -- 73
2020-05-14 14:00:00 16.2 6 Sudeste 9 Sur 0 -- -- 70
2020-05-14 13:00:00 14.7 3 Nordeste 9 Norte 0 -- -- 79
2020-05-14 12:00:00 12.7 5 Norte 22 Noroeste 0 -- -- 85
2020-05-14 11:00:00 11.6 15 Noroeste 22 Noroeste 0.6 -- -- 86
2020-05-14 10:00:00 11.7 15 Noroeste 24 Noroeste 0 -- -- 82
2020-05-14 09:00:00 10.7 15 Noroeste 27 Noroeste 0 -- -- 85
2020-05-14 08:00:00 10.1 17 Noroeste 29 Noroeste 0 -- -- 87
2020-05-14 07:00:00 10.1 19 Noroeste 31 Noroeste 0 -- -- 86
2020-05-14 06:00:00 10.2 23 Noroeste 35 Noroeste 0 -- -- 87
2020-05-14 05:00:00 10.8 23 Noroeste 39 Noroeste 0 -- -- 84
2020-05-14 04:00:00 10.7 27 Noroeste 38 Noroeste 0 -- -- 85
2020-05-14 03:00:00 10.6 23 Noroeste 36 Noroeste 0 -- -- 86
2020-05-14 02:00:00 10.6 17 Noroeste 35 Noroeste 0 -- -- 86
2020-05-14 01:00:00 11.3 22 Noroeste 30 Noroeste 0 -- -- 84
2020-05-14 00:00:00 11.6 17 Noroeste 22 Noroeste 0 -- -- 84
2020-05-13 23:00:00 12.6 9 Noroeste 21 Noroeste 0 -- -- 79
2020-05-13 22:00:00 13.7 10 Noroeste 17 Noroeste 0 -- -- 76
2020-05-13 21:00:00 15.2 4 Noroeste 8 Noroeste 0 -- -- 66
2020-05-13 20:00:00 16.2 2 Sur 13 Sur 0 -- -- 57
2020-05-13 19:00:00 17.2 2 Sur 14 Sur 0 -- -- 56
2020-05-13 18:00:00 16.6 10 Sur 15 Sur 0 -- -- 57
2020-05-13 17:00:00 14.6 5 Sudeste 14 Sur 0 -- -- 68
2020-05-13 16:00:00 14.7 6 Sudeste 19 Sudoeste 0 -- -- 69
2020-05-13 15:00:00 15.1 8 Sur 24 Sudoeste 0 -- -- 66
2020-05-13 14:00:00 14.7 18 Sur 24 Sur 0 -- -- 66
2020-05-13 13:00:00 16.2 8 Sudeste 15 Sur 0 -- -- 63
2020-05-13 12:00:00 15.4 6 Sudoeste 19 Noroeste 0 -- -- 61
2020-05-13 11:00:00 12.8 14 Noroeste 28 Noroeste 0.2 -- -- 75
2020-05-13 10:00:00 10.6 16 Noroeste 28 Noroeste 0 -- -- 79
2020-05-13 09:00:00 10.5 21 Noroeste 32 Noroeste 0 -- -- 75
2020-05-13 08:00:00 10.3 18 Noroeste 32 Noroeste 0 -- -- 83
2020-05-13 07:00:00 10.5 14 Noroeste 22 Noroeste 4 -- -- 92
2020-05-13 06:00:00 10.8 0 Calma 28 Noroeste 5.6 -- -- 90
2020-05-13 05:00:00 11.1 23 Noroeste 38 Noroeste 2.4 -- -- 89
2020-05-13 04:00:00 11.5 18 Noroeste 28 Noroeste 1 -- -- 87
2020-05-13 03:00:00 12.1 16 Norte 25 Noroeste 1 -- -- 87
2020-05-13 02:00:00 12.6 14 Noroeste 27 Noroeste 0.8 -- -- 89
2020-05-13 01:00:00 13 22 Noroeste 32 Noroeste 0.4 -- -- 89
2020-05-13 00:00:00 13 21 Noroeste 27 Noroeste 1.2 -- -- 90
2020-05-12 23:00:00 13 2 Este 12 Sur 2.6 -- -- 89
2020-05-12 22:00:00 13.8 4 Sudeste 19 Sur 1.6 -- -- 86
2020-05-12 21:00:00 14.9 6 Sur 22 Sur 0 -- -- 79
2020-05-12 20:00:00 16.3 11 Sur 21 Sur 0 -- -- 72
2020-05-12 19:00:00 18 11 Sur 22 Sur 0 -- -- 56
2020-05-12 18:00:00 19.2 9 Sur 13 Sur 0 -- -- 51
2020-05-12 17:00:00 18.3 7 Sur 19 Sur 0 -- -- 56
2020-05-12 16:00:00 17.4 6 Este 16 Sur 0 -- -- 61
2020-05-12 15:00:00 17.6 6 Sur 15 Sur 0 -- -- 52
2020-05-12 14:00:00 17.9 13 Sur 18 Sur 0 -- -- 58
2020-05-12 13:00:00 18 11 Sur 17 Sudoeste 0 -- -- 54
2020-05-12 12:00:00 16.9 3 Sur 10 Sur 0 -- -- 62
2020-05-12 11:00:00 14.4 6 Sudoeste 17 Noroeste 0 -- -- 65
2020-05-12 10:00:00 11.1 13 Noroeste 25 Noroeste 0 -- -- 78
2020-05-12 09:00:00 8.9 15 Noroeste 32 Noroeste 0 -- -- 86
2020-05-12 08:00:00 7.9 18 Noroeste 37 Noroeste 0 -- -- 88
2020-05-12 07:00:00 7.7 28 Noroeste 42 Noroeste 0 -- -- 88
2020-05-12 06:00:00 8.2 25 Noroeste 39 Noroeste 0 -- -- 87
2020-05-12 05:00:00 8.4 24 Noroeste 43 Noroeste 0 -- -- 88
2020-05-12 04:00:00 9 20 Noroeste 33 Noroeste 0 -- -- 87
2020-05-12 03:00:00 9.5 17 Noroeste 30 Noroeste 0 -- -- 86
2020-05-12 02:00:00 10.4 23 Noroeste 35 Noroeste 0 -- -- 82
2020-05-12 01:00:00 11.1 19 Noroeste 27 Noroeste 0 -- -- 81
2020-05-12 00:00:00 12.3 2 Noroeste 10 Noroeste 0 -- -- 74
2020-05-11 23:00:00 13.6 0 Calma 11 Noroeste 0 -- -- 66
2020-05-11 22:00:00 14.6 5 Noroeste 9 Oeste 0 -- -- 62
2020-05-11 21:00:00 15.3 2 Sudeste 9 Sur 0 -- -- 59
2020-05-11 20:00:00 16.4 5 Este 15 Sur 0 -- -- 53
2020-05-11 19:00:00 17.6 9 Sur 33 Sur 0 -- -- 53
2020-05-11 18:00:00 17.6 14 Sur 43 Sudoeste 0 -- -- 56
2020-05-11 17:00:00 17.5 23 Sur 38 Sur 0 -- -- 57
2020-05-11 16:00:00 16.4 10 Sur 25 Sur 0 -- -- 66
2020-05-11 15:00:00 14.4 10 Sur 27 Sur 0.2 -- -- 68
2020-05-11 14:00:00 13.9 8 Este 16 Sudeste 0 -- -- 75
2020-05-11 13:00:00 12.8 5 Sudeste 16 Sudeste 0 -- -- 78
2020-05-11 12:00:00 12.1 5 Sur 13 Sur 0 -- -- 83
2020-05-11 11:00:00 11.3 6 Sudeste 11 Sur 0 -- -- 90
2020-05-11 10:00:00 10.5 2 Oeste 14 Sudoeste 0 -- -- 92
2020-05-11 09:00:00 10.2 7 Sur 13 Sudoeste 0 -- -- 93
2020-05-11 08:00:00 10.2 6 Sur 10 Sur 0 -- -- 93
2020-05-11 07:00:00 10.2 3 Sur 9 Sur 0 -- -- 94
2020-05-11 06:00:00 10.3 2 Sur 8 Sudoeste 0 -- -- 94
2020-05-11 05:00:00 10.5 3 Sur 9 Sudoeste 0 -- -- 95
2020-05-11 04:00:00 10.5 5 Sur 10 Sur 0 -- -- 95
2020-05-11 03:00:00 10.4 2 Sur 3 Sur 0 -- -- 95
2020-05-11 02:00:00 10.4 0 Calma 3 Sur 0 -- -- 95
2020-05-11 01:00:00 10.4 0 Calma 4 Sur 0.2 -- -- 95
2020-05-11 00:00:00 10.3 0 Calma 0 Calma 1.2 -- -- 94
2020-05-10 23:00:00 10.2 0 Calma 3 Sudeste 0.2 -- -- 94
2020-05-10 22:00:00 10.2 0 Calma 4 Sudoeste 0.2 -- -- 94
2020-05-10 21:00:00 10.3 4 Sur 6 Sudoeste 1.2 -- -- 94
2020-05-10 20:00:00 10.4 2 Noroeste 15 Sur 4 -- -- 94
2020-05-10 19:00:00 10.3 8 Sur 27 Sur 4 -- -- 93
2020-05-10 18:00:00 11.2 7 Sudoeste 24 Sur 3 -- -- 93
2020-05-10 17:00:00 11.7 6 Sur 17 Sudoeste 1.6 -- -- 94
2020-05-10 16:00:00 11.6 12 Sudoeste 15 Sudoeste 2 -- -- 92
2020-05-10 15:00:00 11.9 7 Noroeste 18 Noroeste 2 -- -- 90
2020-05-10 14:00:00 11.8 14 Sudoeste 35 Noroeste 6 -- -- 89
2020-05-10 13:00:00 13 12 Sudoeste 30 Sudoeste 5.8 -- -- 86
2020-05-10 12:00:00 15 6 Sudoeste 29 Sur 0 -- -- 86
2020-05-10 11:00:00 14.6 21 Sur 53 Sur 2 -- -- 84
2020-05-10 10:00:00 14 5 Este 14 Oeste 4.4 -- -- 89
2020-05-10 09:00:00 14.8 8 Noroeste 14 Noroeste 0.2 -- -- 82
2020-05-10 08:00:00 14.2 5 Este 10 Sur 0 -- -- 85
2020-05-10 07:00:00 14.2 3 Sudoeste 10 Sudoeste 0 -- -- 83
2020-05-10 06:00:00 14.6 4 Sudoeste 16 Sudoeste 0 -- -- 80
2020-05-10 05:00:00 15.1 3 Oeste 14 Noroeste 0 -- -- 78
2020-05-10 04:00:00 15.5 3 Sudoeste 29 Sur 0 -- -- 77
2020-05-10 03:00:00 15.4 13 Sudoeste 21 Sudoeste 0 -- -- 78
2020-05-10 02:00:00 15.5 5 Sudoeste 12 Sur 0 -- -- 77
2020-05-10 01:00:00 15.3 3 Sudeste 10 Noroeste 0 -- -- 78
2020-05-10 00:00:00 15.7 8 Noroeste 13 Noroeste 0 -- -- 76
2020-05-09 23:00:00 15.6 4 Este 9 Sudoeste 0 -- -- 76
2020-05-09 22:00:00 16.2 4 Sur 18 Sur 0 -- -- 73
2020-05-09 21:00:00 17.7 5 Sur 17 Sudoeste 0 -- -- 65
2020-05-09 20:00:00 18.8 14 Sudoeste 19 Sudoeste 0 -- -- 60
2020-05-09 19:00:00 19.9 8 Sudeste 20 Sur 0 -- -- 52
2020-05-09 18:00:00 20.8 18 Sur 26 Sur 0 -- -- 46
2020-05-09 17:00:00 21.6 20 Sudoeste 27 Sur 0 -- -- 43
2020-05-09 16:00:00 23 14 Sur 33 Sur 0 -- -- 42
2020-05-09 15:00:00 22.2 17 Sur 39 Sudoeste 0 -- -- 42
2020-05-09 14:00:00 24 23 Sudoeste 33 Sudoeste 0 -- -- 31
2020-05-09 13:00:00 23.9 11 Sur 19 Sudoeste 0 -- -- 43
2020-05-09 12:00:00 21 8 Norte 26 Noroeste 0 -- -- 43
2020-05-09 11:00:00 17.7 17 Noroeste 30 Noroeste 0 -- -- 48
2020-05-09 10:00:00 14.9 12 Noroeste 45 Noroeste 0 -- -- 57
2020-05-09 09:00:00 12.8 26 Noroeste 44 Noroeste 0 -- -- 68
2020-05-09 08:00:00 12.1 31 Noroeste 45 Noroeste 0 -- -- 70
2020-05-09 07:00:00 11.2 18 Noroeste 42 Noroeste 0 -- -- 74
2020-05-09 06:00:00 11.5 32 Noroeste 42 Noroeste 0 -- -- 73
2020-05-09 05:00:00 11.9 26 Noroeste 42 Noroeste 0 -- -- 71
2020-05-09 04:00:00 12.7 29 Noroeste 42 Noroeste 0 -- -- 69
2020-05-09 03:00:00 13.4 31 Noroeste 42 Noroeste 0 -- -- 66
2020-05-09 02:00:00 14.1 27 Noroeste 37 Noroeste 0 -- -- 64
2020-05-09 01:00:00 14.7 22 Noroeste 28 Noroeste 0 -- -- 62
2020-05-09 00:00:00 15.6 20 Noroeste 28 Noroeste 0 -- -- 58
2020-05-08 23:00:00 16.9 13 Noroeste 19 Noroeste 0 -- -- 57
2020-05-08 22:00:00 18.3 2 Norte 7 Este 0 -- -- 52
2020-05-08 21:00:00 20.7 3 Sudoeste 20 Sur 0 -- -- 43
2020-05-08 20:00:00 21.8 12 Sur 23 Nordeste 0 -- -- 39
2020-05-08 19:00:00 22.8 9 Nordeste 34 Sur 0 -- -- 33
2020-05-08 18:00:00 24.4 16 Sur 27 Sudoeste 0 -- -- 29
2020-05-08 17:00:00 24.6 18 Sudoeste 27 Sudoeste 0 -- -- 26
2020-05-08 16:00:00 24.6 14 Sudoeste 27 Sur 0 -- -- 27
2020-05-08 15:00:00 24 14 Sur 27 Sur 0 -- -- 31
2020-05-08 14:00:00 24 8 Norte 23 Sur 0 -- -- 30
2020-05-08 13:00:00 22.3 11 Sudoeste 26 Sur 0 -- -- 35
2020-05-08 12:00:00 21.7 14 Sur 28 Sudoeste 0 -- -- 39
2020-05-08 11:00:00 20 5 Sur 18 Noroeste 0 -- -- 65
2020-05-08 10:00:00 17.3 17 Noroeste 33 Noroeste 0 -- -- 69
2020-05-08 09:00:00 15.2 25 Noroeste 35 Noroeste 0 -- -- 75
2020-05-08 08:00:00 13.5 23 Noroeste 41 Noroeste 0 -- -- 82
2020-05-08 07:00:00 13.8 23 Noroeste 35 Noroeste 0 -- -- 81
2020-05-08 06:00:00 13.9 20 Noroeste 30 Noroeste 0 -- -- 80
2020-05-08 05:00:00 14.1 18 Noroeste 26 Noroeste 0 -- -- 81
2020-05-08 04:00:00 14.7 12 Noroeste 20 Noroeste 0 -- -- 78
2020-05-08 03:00:00 14.9 5 Norte 25 Noroeste 0 -- -- 78
2020-05-08 02:00:00 16.1 17 Noroeste 31 Noroeste 0 -- -- 72
2020-05-08 01:00:00 16.4 17 Noroeste 21 Noroeste 0 -- -- 72
2020-05-08 00:00:00 17.4 9 Noroeste 22 Noroeste 0 -- -- 67
2020-05-07 23:00:00 18.2 8 Noroeste 13 Noroeste 0 -- -- 64
2020-05-07 22:00:00 19.3 2 Sudeste 11 Sudoeste 0 -- -- 59
2020-05-07 21:00:00 20.8 7 Sudoeste 25 Sur 0 -- -- 54
2020-05-07 20:00:00 21.9 16 Sur 24 Sur 0 -- -- 50
2020-05-07 19:00:00 23.1 13 Sur 20 Sudoeste 0 -- -- 48
2020-05-07 18:00:00 23.9 8 Sur 23 Sur 0 -- -- 44
2020-05-07 17:00:00 23.9 14 Sur 28 Sur 0 -- -- 45
2020-05-07 16:00:00 25 14 Sur 23 Sur 0 -- -- 39
2020-05-07 15:00:00 25 12 Sur 23 Sur 0 -- -- 41
2020-05-07 14:00:00 24.5 15 Sur 22 Sur 0 -- -- 43
2020-05-07 13:00:00 24.6 7 Sur 17 Sur 0 -- -- 42
2020-05-07 12:00:00 22.6 9 Sur 14 Sur 0 -- -- 40
2020-05-07 11:00:00 20.4 3 Nordeste 21 Noroeste 0 -- -- 58
2020-05-07 10:00:00 15.8 13 Noroeste 35 Noroeste 0 -- -- 64
2020-05-07 09:00:00 13 27 Noroeste 43 Noroeste 0 -- -- 74
2020-05-07 08:00:00 11.5 28 Noroeste 41 Noroeste 0 -- -- 78
2020-05-07 07:00:00 11.6 30 Noroeste 46 Noroeste 0 -- -- 77
2020-05-07 06:00:00 11.7 32 Noroeste 42 Noroeste 0 -- -- 77
2020-05-07 05:00:00 12.1 30 Noroeste 41 Noroeste 0 -- -- 76
2020-05-07 04:00:00 12.7 28 Noroeste 39 Noroeste 0 -- -- 73
2020-05-07 03:00:00 13.4 27 Noroeste 40 Noroeste 0 -- -- 71
2020-05-07 02:00:00 14.4 23 Noroeste 33 Noroeste 0 -- -- 67
2020-05-07 01:00:00 15.5 23 Noroeste 35 Noroeste 0 -- -- 62
2020-05-07 00:00:00 16.4 20 Noroeste 28 Noroeste 0 -- -- 59
2020-05-06 23:00:00 17.8 15 Noroeste 22 Noroeste 0 -- -- 54
2020-05-06 22:00:00 19.3 9 Noroeste 14 Noroeste 0 -- -- 48
2020-05-06 21:00:00 20.4 8 Sudeste 12 Este 0 -- -- 46
2020-05-06 20:00:00 22.1 5 Sudeste 17 Sur 0 -- -- 40
2020-05-06 19:00:00 23.3 10 Sur 22 Sur 0 -- -- 35
2020-05-06 18:00:00 24.3 13 Sur 23 Sudeste 0 -- -- 37
2020-05-06 17:00:00 24.5 14 Sur 29 Sur 0 -- -- 39
2020-05-06 16:00:00 24.6 18 Sur 28 Sudoeste 0 -- -- 37
2020-05-06 15:00:00 25 10 Sur 32 Sudoeste 0 -- -- 36
2020-05-06 14:00:00 24.3 16 Sur 29 Sur 0 -- -- 35
2020-05-06 13:00:00 23.9 14 Sur 24 Sur 0 -- -- 37
2020-05-06 12:00:00 22 9 Sur 13 Sur 0 -- -- 42
2020-05-06 11:00:00 18.7 4 Norte 30 Noroeste 0 -- -- 42
2020-05-06 10:00:00 14.8 23 Noroeste 43 Noroeste 0 -- -- 52
2020-05-06 09:00:00 11.4 35 Noroeste 48 Noroeste 0 -- -- 64
2020-05-06 08:00:00 9.4 41 Noroeste 53 Noroeste 0 -- -- 71
2020-05-06 07:00:00 9.4 39 Noroeste 51 Noroeste 0 -- -- 72
2020-05-06 06:00:00 9.5 39 Noroeste 59 Noroeste 0 -- -- 74
2020-05-06 05:00:00 10.1 38 Noroeste 50 Noroeste 0 -- -- 74
2020-05-06 04:00:00 10.8 36 Noroeste 48 Noroeste 0 -- -- 71
2020-05-06 03:00:00 11.6 33 Noroeste 46 Noroeste 0 -- -- 68
2020-05-06 02:00:00 12.6 32 Noroeste 43 Noroeste 0 -- -- 65
2020-05-06 01:00:00 13.4 27 Noroeste 37 Noroeste 0 -- -- 61
2020-05-06 00:00:00 14.6 23 Noroeste 32 Noroeste 0 -- -- 58
2020-05-05 23:00:00 16.1 18 Noroeste 32 Noroeste 0 -- -- 54
2020-05-05 22:00:00 18.5 12 Noroeste 26 Noroeste 0 -- -- 44
2020-05-05 21:00:00 19 5 Este 8 Este 0 -- -- 51
2020-05-05 20:00:00 21.3 4 Sudoeste 14 Sur 0 -- -- 44
2020-05-05 19:00:00 22 5 Sudeste 21 Sur 0 -- -- 49
2020-05-05 18:00:00 22.6 14 Sur 26 Sur 0 -- -- 47
2020-05-05 17:00:00 23.3 18 Sur 25 Sur 0 -- -- 49
2020-05-05 16:00:00 23.8 8 Sur 26 Sur 0 -- -- 42
2020-05-05 15:00:00 24.3 14 Sur 26 Sur 0 -- -- 48
2020-05-05 14:00:00 23.7 13 Sur 26 Sur 0 -- -- 47
2020-05-05 13:00:00 23.8 10 Sur 23 Sudoeste 0 -- -- 47
2020-05-05 12:00:00 22.7 12 Sur 18 Sur 0 -- -- 48
2020-05-05 11:00:00 20.3 11 Sudoeste 15 Sudoeste 0 -- -- 52
2020-05-05 10:00:00 18.3 3 Norte 25 Noroeste 0 -- -- 69
2020-05-05 09:00:00 14.7 18 Noroeste 35 Noroeste 0 -- -- 72
2020-05-05 08:00:00 12.8 21 Noroeste 35 Noroeste 0 -- -- 81
2020-05-05 07:00:00 13.3 26 Noroeste 38 Noroeste 0 -- -- 79
2020-05-05 06:00:00 14.1 27 Noroeste 39 Norte 0 -- -- 76
2020-05-05 05:00:00 14.7 24 Noroeste 37 Noroeste 0 -- -- 77
2020-05-05 04:00:00 15.4 22 Noroeste 33 Noroeste 0 -- -- 76
2020-05-05 03:00:00 16.5 16 Noroeste 32 Noroeste 0 -- -- 74
2020-05-05 02:00:00 17.2 19 Noroeste 27 Noroeste 0 -- -- 73
2020-05-05 01:00:00 18.3 8 Noroeste 14 Noroeste 0 -- -- 70
2020-05-05 00:00:00 19.8 0 Calma 13 Sudoeste 0 -- -- 63
2020-05-04 23:00:00 21.7 12 Noroeste 19 Noroeste 0 -- -- 57
2020-05-04 22:00:00 22.6 4 Este 13 Sudeste 0 -- -- 54
2020-05-04 21:00:00 23.9 2 Sudeste 12 Oeste 0 -- -- 53
2020-05-04 20:00:00 25.3 3 Sur 19 Sudoeste 0 -- -- 45
2020-05-04 19:00:00 26.4 13 Sur 23 Sur 0 -- -- 46
2020-05-04 18:00:00 27 8 Sur 19 Sur 0 -- -- 37
2020-05-04 17:00:00 28.1 15 Sur 27 Sur 0 -- -- 37
2020-05-04 16:00:00 28.2 11 Sur 23 Sur 0 -- -- 38
2020-05-04 15:00:00 27.9 11 Sur 18 Sur 0 -- -- 37
2020-05-04 14:00:00 26.7 9 Sur 17 Sur 0 -- -- 38
2020-05-04 13:00:00 25.3 9 Sudoeste 15 Sur 0 -- -- 47
2020-05-04 12:00:00 23.8 9 Sur 15 Noroeste 0 -- -- 48
2020-05-04 11:00:00 20.3 12 Noroeste 27 Noroeste 0 -- -- 49
2020-05-04 10:00:00 16.9 20 Noroeste 41 Noroeste 0 -- -- 60
2020-05-04 09:00:00 13.7 30 Noroeste 47 Noroeste 0 -- -- 73
2020-05-04 08:00:00 11.7 34 Noroeste 49 Noroeste 0 -- -- 81
2020-05-04 07:00:00 11.6 34 Noroeste 50 Noroeste 0 -- -- 82
2020-05-04 06:00:00 12.3 32 Noroeste 47 Noroeste 0 -- -- 80
2020-05-04 05:00:00 12.4 33 Noroeste 44 Noroeste 0 -- -- 80
2020-05-04 04:00:00 13 30 Noroeste 38 Noroeste 0 -- -- 78
2020-05-04 03:00:00 13.6 21 Noroeste 39 Noroeste 0 -- -- 77
2020-05-04 02:00:00 14.4 25 Noroeste 35 Noroeste 0 -- -- 74
2020-05-04 01:00:00 15.4 23 Noroeste 31 Noroeste 0 -- -- 71
2020-05-04 00:00:00 16.5 16 Noroeste 31 Noroeste 0 -- -- 67
2020-05-03 23:00:00 17.7 20 Noroeste 28 Noroeste 0 -- -- 63
2020-05-03 22:00:00 19.4 8 Noroeste 12 Noroeste 0 -- -- 57
2020-05-03 21:00:00 21 2 Sur 18 Sudoeste 0 -- -- 53
2020-05-03 20:00:00 22.5 12 Sur 23 Sur 0 -- -- 47
2020-05-03 19:00:00 24.1 14 Sur 23 Sur 0 -- -- 38
2020-05-03 18:00:00 24.5 13 Sur 25 Sur 0 -- -- 42
2020-05-03 17:00:00 24.8 15 Sur 23 Sur 0 -- -- 42
2020-05-03 16:00:00 24.9 14 Sudoeste 22 Sur 0 -- -- 38
2020-05-03 15:00:00 24.5 10 Sur 22 Sudoeste 0 -- -- 38
2020-05-03 14:00:00 24.2 10 Sur 19 Sur 0 -- -- 39
2020-05-03 13:00:00 23 11 Sur 18 Sudoeste 0 -- -- 41
2020-05-03 12:00:00 21.8 9 Sur 14 Sudoeste 0 -- -- 43
2020-05-03 11:00:00 18.6 3 Este 19 Noroeste 0 -- -- 54
2020-05-03 10:00:00 14.8 14 Norte 40 Noroeste 0 -- -- 59
2020-05-03 09:00:00 11.4 31 Noroeste 43 Noroeste 0 -- -- 69
2020-05-03 08:00:00 9.4 32 Noroeste 44 Noroeste 0 -- -- 78
2020-05-03 07:00:00 9.7 32 Noroeste 45 Noroeste 0 -- -- 77
2020-05-03 06:00:00 10.5 28 Noroeste 46 Noroeste 0 -- -- 74
2020-05-03 05:00:00 11.7 28 Noroeste 44 Noroeste 0 -- -- 69
2020-05-03 04:00:00 12 32 Noroeste 43 Noroeste 0 -- -- 70
2020-05-03 03:00:00 12.8 30 Noroeste 38 Noroeste 0 -- -- 69
2020-05-03 02:00:00 13.8 23 Noroeste 32 Noroeste 0 -- -- 66
2020-05-03 01:00:00 14.8 17 Noroeste 28 Noroeste 0 -- -- 64
2020-05-03 00:00:00 16.2 16 Noroeste 26 Noroeste 0 -- -- 60
2020-05-02 23:00:00 17.9 12 Noroeste 21 Noroeste 0 -- -- 55
2020-05-02 22:00:00 19 0 Calma 9 Sudoeste 0 -- -- 49
2020-05-02 21:00:00 20.7 4 Oeste 34 Sudoeste 0 -- -- 45
2020-05-02 20:00:00 21.9 15 Sur 37 Sudoeste 0 -- -- 42
2020-05-02 19:00:00 22.4 17 Sur 40 Sur 0 -- -- 42
2020-05-02 18:00:00 23.5 10 Sur 39 Sur 0 -- -- 45
2020-05-02 17:00:00 22.9 9 Sudeste 24 Este 0 -- -- 52
2020-05-02 16:00:00 23.1 10 Sur 28 Sur 0 -- -- 55
2020-05-02 15:00:00 23.8 14 Sur 32 Oeste 0 -- -- 51
2020-05-02 14:00:00 23.4 14 Sur 23 Sudoeste 0 -- -- 50
2020-05-02 13:00:00 22.7 9 Sur 18 Sur 0 -- -- 54
2020-05-02 12:00:00 20.1 9 Sur 14 Sur 0 -- -- 63
2020-05-02 11:00:00 18.6 8 Sur 17 Noroeste 0 -- -- 67
2020-05-02 10:00:00 13.8 11 Noroeste 29 Noroeste 0 -- -- 73
2020-05-02 09:00:00 10.7 17 Noroeste 37 Noroeste 0 -- -- 83
2020-05-02 08:00:00 9.4 23 Noroeste 37 Noroeste 0 -- -- 89
2020-05-02 07:00:00 9.6 22 Noroeste 35 Noroeste 0 -- -- 87
2020-05-02 06:00:00 10.3 22 Noroeste 35 Noroeste 0 -- -- 87
2020-05-02 05:00:00 10.9 18 Noroeste 35 Noroeste 0 -- -- 84
2020-05-02 04:00:00 11.3 23 Noroeste 31 Noroeste 0 -- -- 84
2020-05-02 03:00:00 12.1 19 Noroeste 32 Noroeste 0 -- -- 83
2020-05-02 02:00:00 13 13 Noroeste 27 Noroeste 0 -- -- 80
2020-05-02 01:00:00 13.9 12 Noroeste 27 Noroeste 0 -- -- 77
2020-05-02 00:00:00 15 14 Noroeste 24 Noroeste 0 -- -- 74